Terminal Aerodrome Forecast
Issued by NWS

Home | Current Version | Previous Version | Graphics & Text | Print | Product List | Glossary On
Versions: 1 2 3 4 5 6 7 8 9 10 11 12 13 14 15
531
FTUS43 KMPX 181136
TAFRWF
TAF
KRWF 181136Z 1812/1912 18005KT P6SM SCT070 BKN100
     FM181400 24006KT P6SM VCSH SCT035 BKN060
     FM181600 36007KT 6SM SHRA VCTS SCT030CB BKN045
      TEMPO 1817/1821 4SM TSRA BKN030CB BKN035
     FM182300 04008KT 6SM -SHRA VCTS SCT050CB BKN060
     FM190200 05005KT P6SM SCT030 BKN080
     FM190900 05004KT P6SM SCT025 SCT100=

USA.gov is the U.S. government's official web portal to all federal, state and local government web resources and services.